Time;durP1;ratioP1;P1;durP2;ratioP2;P2;SDS_P1;SDS_P2;PMS_P1;PMS_P2;Temp;Humidity;BMP_temperature;BMP_pressure;BME280_temperature;BME280_humidity;BME280_pressure;Samples;Min_cycle;Max_cycle;Signal;HPM_P1;HPM_P2
2022/09/18 00:01:38;;;;;;;;;;;;;;;;;;4998296;28;6848;-86
2022/09/18 00:04:05;;;;;;;;;;;;;;;;;;4994382;28;7015;-89
2022/09/18 00:06:33;;;;;;;;;;;;;;;;;;4994000;28;7028;-88
2022/09/18 00:09:00;;;;;;;;;;;;;;;;;;4993989;28;8635;-88
2022/09/18 00:11:28;;;;;;;;;;;;;;;;;;4996861;28;7039;-86
2022/09/18 00:13:54;;;;;;;;;;;;;;;;;;4981081;28;8406;-87
2022/09/18 00:16:21;;;;;;;;;;;;;;;;;;4997127;28;7011;-88
2022/09/18 00:18:47;;;;;;;;;;;;;;;;;;4996299;28;7233;-88
2022/09/18 00:21:14;;;;;;;;;;;;;;;;;;4995951;28;7594;-88
2022/09/18 00:23:40;;;;;;;;;;;;;;;;;;4995913;28;7172;-86
2022/09/18 00:26:07;;;;;;;;;;;;;;;;;;4995994;28;7106;-87
2022/09/18 00:28:33;;;;;;;;;;;;;;;;;;4996408;28;7337;-85
2022/09/18 00:31:06;;;;;;;;;;;;;;;;;;4997566;28;7050;-88
2022/09/18 00:33:32;;;;;;;;;;;;;;;;;;4998169;28;7006;-87
2022/09/18 00:36:02;;;;;;;;;;;;;;;;;;4997811;28;6835;-85
2022/09/18 00:38:30;;;;;;;;;;;;;;;;;;4997013;28;8523;-88
2022/09/18 00:40:56;;;;;;;;;;;;;;;;;;4997752;28;7039;-87
2022/09/18 00:43:24;;;;;;;;;;;;;;;;;;4998164;28;7137;-88
2022/09/18 00:45:56;;;;;;;;;;;;;;;;;;4998004;28;7030;-89
2022/09/18 00:48:24;;;;;;;;;;;;;;;;;;4998149;28;7037;-87
2022/09/18 00:50:50;;;;;;;;;;;;;;;;;;4998441;28;7110;-86
2022/09/18 00:53:16;;;;;;;;;;;;;;;;;;4998524;28;7015;-85
2022/09/18 00:55:42;;;;;;;;;;;;;;;;;;4997788;28;7015;-87
2022/09/18 00:58:09;;;;;;;;;;;;;;;;;;4996233;28;7017;-89
2022/09/18 01:00:34;;;;;;;;;;;;;;;;;;4996629;28;8741;-85
2022/09/18 01:03:00;;;;;;;;;;;;;;;;;;4998222;28;8387;-84
2022/09/18 01:05:46;;;;;;;;;;;;;;;;;;4998713;28;8729;-88
2022/09/18 01:08:18;;;;;;;;;;;;;;;;;;4999023;28;7650;-85
2022/09/18 01:11:10;;;;;;;;;;;;;;;;;;5000274;28;8511;-86
2022/09/18 01:13:45;;;;;;;;;;;;;;;;;;5000896;28;8340;-83
2022/09/18 01:16:21;;;;;;;;;;;;;;;;;;5000116;28;7162;-83
2022/09/18 01:19:10;;;;;;;;;;;;;;;;;;5000297;28;7155;-87
2022/09/18 01:21:42;;;;;;;;;;;;;;;;;;5000059;28;7159;-87
2022/09/18 01:24:32;;;;;;;;;;;;;;;;;;4997905;28;7087;-88
2022/09/18 01:27:04;;;;;;;;;;;;;;;;;;4998547;28;8376;-85
2022/09/18 01:29:48;;;;;;;;;;;;;;;;;;4998247;28;7671;-87
2022/09/18 01:32:19;;;;;;;;;;;;;;;;;;4998831;28;7159;-89
2022/09/18 01:34:48;;;;;;;;;;;;;;;;;;4999887;28;8366;-89
2022/09/18 01:37:28;;;;;;;;;;;;;;;;;;4998099;28;8895;-86
2022/09/18 01:40:00;;;;;;;;;;;;;;;;;;4997762;28;8391;-86
2022/09/18 01:42:28;;;;;;;;;;;;;;;;;;4997907;28;7009;-87
2022/09/18 01:44:58;;;;;;;;;;;;;;;;;;4995142;28;7035;-87
2022/09/18 01:47:27;;;;;;;;;;;;;;;;;;4992924;28;8310;-89
2022/09/18 01:49:55;;;;;;;;;;;;;;;;;;4992705;28;8638;-87
2022/09/18 01:52:40;;;;;;;;;;;;;;;;;;4993202;28;7252;-89
2022/09/18 01:55:12;;;;;;;;;;;;;;;;;;4993000;28;7169;-88
2022/09/18 01:57:45;;;;;;;;;;;;;;;;;;4994220;28;8402;-88
2022/09/18 02:00:12;;;;;;;;;;;;;;;;;;4994577;28;7285;-86
2022/09/18 02:02:56;;;;;;;;;;;;;;;;;;4994409;28;8289;-89
2022/09/18 02:05:29;;;;;;;;;;;;;;;;;;4997145;28;8581;-85
2022/09/18 02:08:18;;;;;;;;;;;;;;;;;;4997358;28;7028;-86
2022/09/18 02:10:47;;;;;;;;;;;;;;;;;;4991358;28;7030;-87
2022/09/18 02:13:19;;;;;;;;;;;;;;;;;;4997324;28;8416;-86
2022/09/18 02:15:47;;;;;;;;;;;;;;;;;;4996454;28;7145;-87
2022/09/18 02:18:33;;;;;;;;;;;;;;;;;;4994258;28;7026;-86
2022/09/18 02:21:00;;;;;;;;;;;;;;;;;;4995271;28;8413;-88
2022/09/18 02:23:27;;;;;;;;;;;;;;;;;;4994143;28;7066;-89
2022/09/18 02:26:04;;;;;;;;;;;;;;;;;;4993484;28;7419;-88
2022/09/18 02:28:30;;;;;;;;;;;;;;;;;;4992054;28;7232;-88
2022/09/18 02:30:57;;;;;;;;;;;;;;;;;;4991984;28;7152;-88
2022/09/18 02:33:23;;;;;;;;;;;;;;;;;;4992413;28;8697;-89
2022/09/18 02:35:55;;;;;;;;;;;;;;;;;;4992379;28;8371;-90
2022/09/18 02:38:30;;;;;;;;;;;;;;;;;;4993701;28;7443;-87
2022/09/18 02:41:06;;;;;;;;;;;;;;;;;;4992965;28;8878;-88
2022/09/18 02:43:50;;;;;;;;;;;;;;;;;;4993527;28;8288;-89
2022/09/18 02:46:27;;;;;;;;;;;;;;;;;;4996758;28;7339;-89
2022/09/18 02:49:13;;;;;;;;;;;;;;;;;;4997815;28;8432;-83
2022/09/18 02:51:47;;;;;;;;;;;;;;;;;;4997539;28;8677;-88
2022/09/18 02:54:12;;;;;;;;;;;;;;;;;;4998003;28;7045;-87
2022/09/18 02:57:04;;;;;;;;;;;;;;;;;;4997681;28;7105;-87
2022/09/18 02:59:39;;;;;;;;;;;;;;;;;;4995628;28;8702;-86
2022/09/18 03:02:05;;;;;;;;;;;;;;;;;;4995062;28;7126;-87
2022/09/18 03:04:30;;;;;;;;;;;;;;;;;;4995022;28;8405;-87
2022/09/18 03:06:56;;;;;;;;;;;;;;;;;;4994895;28;7124;-87
2022/09/18 03:09:23;;;;;;;;;;;;;;;;;;4994304;28;8390;-88
2022/09/18 03:11:49;;;;;;;;;;;;;;;;;;4993349;28;8308;-87
2022/09/18 03:14:14;;;;;;;;;;;;;;;;;;4993785;28;7106;-87
2022/09/18 03:16:40;;;;;;;;;;;;;;;;;;4980393;28;7009;-85
2022/09/18 03:19:06;;;;;;;;;;;;;;;;;;4994296;28;8586;-88
2022/09/18 03:21:32;;;;;;;;;;;;;;;;;;4993676;28;7148;-87
2022/09/18 03:23:57;;;;;;;;;;;;;;;;;;4993683;28;8588;-88
2022/09/18 03:26:23;;;;;;;;;;;;;;;;;;4994620;28;8715;-87
2022/09/18 03:28:48;;;;;;;;;;;;;;;;;;4995088;28;8475;-86
2022/09/18 03:31:14;;;;;;;;;;;;;;;;;;4996287;28;7060;-86
2022/09/18 03:33:39;;;;;;;;;;;;;;;;;;4998053;28;7323;-87
2022/09/18 03:36:05;;;;;;;;;;;;;;;;;;5000556;28;7147;-82
2022/09/18 03:38:31;;;;;;;;;;;;;;;;;;5002150;28;8444;-87
2022/09/18 03:40:57;;;;;;;;;;;;;;;;;;5002809;28;8483;-85
2022/09/18 03:43:23;;;;;;;;;;;;;;;;;;5003193;28;7137;-83
2022/09/18 03:45:49;;;;;;;;;;;;;;;;;;5003981;28;7150;-84
2022/09/18 03:48:14;;;;;;;;;;;;;;;;;;5003833;28;8412;-88
2022/09/18 03:50:40;;;;;;;;;;;;;;;;;;5003660;28;7046;-83
2022/09/18 03:53:07;;;;;;;;;;;;;;;;;;5002883;28;7307;-87
2022/09/18 03:55:33;;;;;;;;;;;;;;;;;;5000527;28;7155;-88
2022/09/18 03:57:59;;;;;;;;;;;;;;;;;;4999565;28;7151;-87
2022/09/18 04:00:24;;;;;;;;;;;;;;;;;;4999517;28;7016;-85
2022/09/18 04:02:50;;;;;;;;;;;;;;;;;;4997815;28;8466;-86
2022/09/18 04:05:15;;;;;;;;;;;;;;;;;;4996348;28;7202;-88
2022/09/18 04:07:41;;;;;;;;;;;;;;;;;;4996855;28;8381;-88
2022/09/18 04:10:07;;;;;;;;;;;;;;;;;;4996939;28;7211;-87
2022/09/18 04:12:32;;;;;;;;;;;;;;;;;;4997915;28;7162;-88
2022/09/18 04:14:58;;;;;;;;;;;;;;;;;;4999493;28;7110;-85
2022/09/18 04:17:23;;;;;;;;;;;;;;;;;;4997724;28;7140;-87
2022/09/18 04:19:49;;;;;;;;;;;;;;;;;;4997497;28;7207;-84
2022/09/18 04:22:14;;;;;;;;;;;;;;;;;;4997859;28;7230;-88
2022/09/18 04:24:41;;;;;;;;;;;;;;;;;;4996082;28;6997;-85
2022/09/18 04:27:07;;;;;;;;;;;;;;;;;;4999932;28;8492;-87
2022/09/18 04:29:33;;;;;;;;;;;;;;;;;;4995660;28;7161;-86
2022/09/18 04:31:58;;;;;;;;;;;;;;;;;;4997292;28;7431;-88
2022/09/18 04:34:24;;;;;;;;;;;;;;;;;;4996273;28;7343;-88
2022/09/18 04:36:49;;;;;;;;;;;;;;;;;;4997442;28;8705;-84
2022/09/18 04:39:15;;;;;;;;;;;;;;;;;;4998423;28;7124;-88
2022/09/18 04:41:40;;;;;;;;;;;;;;;;;;4995644;28;7159;-88
2022/09/18 04:44:06;;;;;;;;;;;;;;;;;;4995965;28;7032;-86
2022/09/18 04:46:32;;;;;;;;;;;;;;;;;;4994281;28;7355;-89
2022/09/18 04:48:57;;;;;;;;;;;;;;;;;;4994152;28;7429;-89
2022/09/18 04:51:23;;;;;;;;;;;;;;;;;;4995066;28;6981;-86
2022/09/18 04:53:48;;;;;;;;;;;;;;;;;;4994344;28;8601;-88
2022/09/18 04:56:14;;;;;;;;;;;;;;;;;;4995458;28;8419;-88
2022/09/18 04:58:39;;;;;;;;;;;;;;;;;;4996251;28;7602;-88
2022/09/18 05:01:05;;;;;;;;;;;;;;;;;;4995946;28;7390;-88
2022/09/18 05:03:30;;;;;;;;;;;;;;;;;;4996056;28;7134;-87
2022/09/18 05:05:56;;;;;;;;;;;;;;;;;;4997432;28;8406;-88
2022/09/18 05:08:23;;;;;;;;;;;;;;;;;;4998195;28;6802;-84
2022/09/18 05:10:49;;;;;;;;;;;;;;;;;;4997250;28;8382;-86
2022/09/18 05:13:14;;;;;;;;;;;;;;;;;;4996109;28;8395;-87
2022/09/18 05:15:40;;;;;;;;;;;;;;;;;;4994685;28;8303;-89
2022/09/18 05:18:06;;;;;;;;;;;;;;;;;;4994588;28;7188;-88
2022/09/18 05:20:33;;;;;;;;;;;;;;;;;;4996932;28;7219;-86
2022/09/18 05:22:59;;;;;;;;;;;;;;;;;;4997321;28;7081;-83
2022/09/18 05:25:27;;;;;;;;;;;;;;;;;;4996514;28;8647;-86
2022/09/18 05:27:53;;;;;;;;;;;;;;;;;;4998660;28;7164;-82
2022/09/18 05:30:19;;;;;;;;;;;;;;;;;;4999482;28;7386;-84
2022/09/18 05:32:53;;;;;;;;;;;;;;;;;;4999339;28;8406;-87
2022/09/18 05:35:18;;;;;;;;;;;;;;;;;;4997611;28;8786;-88
2022/09/18 05:37:44;;;;;;;;;;;;;;;;;;5004735;28;6984;-86
2022/09/18 05:40:09;;;;;;;;;;;;;;;;;;5014980;28;8621;-89
2022/09/18 05:42:35;;;;;;;;;;;;;;;;;;5016641;28;7016;-85
2022/09/18 05:45:00;;;;;;;;;;;;;;;;;;5014051;28;7021;-89
2022/09/18 05:47:26;;;;;;;;;;;;;;;;;;5014169;28;7076;-87
2022/09/18 05:49:51;;;;;;;;;;;;;;;;;;5015823;28;8731;-88
2022/09/18 05:52:16;;;;;;;;;;;;;;;;;;5012581;28;7162;-87
2022/09/18 05:54:42;;;;;;;;;;;;;;;;;;5013183;28;7185;-85
2022/09/18 05:57:07;;;;;;;;;;;;;;;;;;5013307;28;8414;-87
2022/09/18 05:59:33;;;;;;;;;;;;;;;;;;5010013;28;8930;-86
2022/09/18 06:01:58;;;;;;;;;;;;;;;;;;5011156;28;7025;-88
2022/09/18 06:04:24;;;;;;;;;;;;;;;;;;5012043;28;7012;-86
2022/09/18 06:06:49;;;;;;;;;;;;;;;;;;5013506;28;7110;-88
2022/09/18 06:09:15;;;;;;;;;;;;;;;;;;5012042;28;7005;-86
2022/09/18 06:11:40;;;;;;;;;;;;;;;;;;5013940;28;8413;-87
2022/09/18 06:14:06;;;;;;;;;;;;;;;;;;5014102;28;8724;-87
2022/09/18 06:16:31;;;;;;;;;;;;;;;;;;5013036;28;6996;-87
2022/09/18 06:18:57;;;;;;;;;;;;;;;;;;5011439;28;8649;-88
2022/09/18 06:21:22;;;;;;;;;;;;;;;;;;5010195;28;8494;-88
2022/09/18 06:23:48;;;;;;;;;;;;;;;;;;5012105;28;7008;-87
2022/09/18 06:26:14;;;;;;;;;;;;;;;;;;5017768;28;7097;-85
2022/09/18 06:28:40;;;;;;;;;;;;;;;;;;5018853;28;8380;-82
2022/09/18 06:31:05;;;;;;;;;;;;;;;;;;5019128;28;8394;-85
2022/09/18 06:33:32;;;;;;;;;;;;;;;;;;5019759;28;8458;-84
2022/09/18 06:35:59;;;;;;;;;;;;;;;;;;5017762;28;8799;-87
2022/09/18 06:38:25;;;;;;;;;;;;;;;;;;5018882;28;7023;-80
2022/09/18 06:40:51;;;;;;;;;;;;;;;;;;5022695;28;8626;-80
2022/09/18 06:43:18;;;;;;;;;;;;;;;;;;5021525;28;8621;-80
2022/09/18 06:45:50;;;;;;;;;;;;;;;;;;5022575;28;7170;-80
2022/09/18 06:48:15;;;;;;;;;;;;;;;;;;5021719;28;7176;-81
2022/09/18 06:50:41;;;;;;;;;;;;;;;;;;5022207;28;7060;-82
2022/09/18 06:53:06;;;;;;;;;;;;;;;;;;5019721;28;8519;-83
2022/09/18 06:55:32;;;;;;;;;;;;;;;;;;5020300;28;7168;-81
2022/09/18 06:57:59;;;;;;;;;;;;;;;;;;5021972;28;7212;-81
2022/09/18 07:00:26;;;;;;;;;;;;;;;;;;5021362;28;7227;-81
2022/09/18 07:02:59;;;;;;;;;;;;;;;;;;5021385;28;7216;-81
2022/09/18 07:05:26;;;;;;;;;;;;;;;;;;5020896;28;8455;-83
2022/09/18 07:07:51;;;;;;;;;;;;;;;;;;5025100;28;8393;-85
2022/09/18 07:10:17;;;;;;;;;;;;;;;;;;5025872;28;6997;-81
2022/09/18 07:12:47;;;;;;;;;;;;;;;;;;5025061;28;8431;-83
2022/09/18 07:15:13;;;;;;;;;;;;;;;;;;5026494;28;8711;-85
2022/09/18 07:17:39;;;;;;;;;;;;;;;;;;5026208;28;6996;-81
2022/09/18 07:20:05;;;;;;;;;;;;;;;;;;5026097;28;7237;-83
2022/09/18 07:22:31;;;;;;;;;;;;;;;;;;5026100;28;8351;-80
2022/09/18 07:24:56;;;;;;;;;;;;;;;;;;5025777;28;8349;-81
2022/09/18 07:27:22;;;;;;;;;;;;;;;;;;5025718;28;7141;-80
2022/09/18 07:29:47;;;;;;;;;;;;;;;;;;5026249;28;8337;-82
2022/09/18 07:32:13;;;;;;;;;;;;;;;;;;5026154;28;7037;-81
2022/09/18 07:34:38;;;;;;;;;;;;;;;;;;5026337;28;7014;-80
2022/09/18 07:37:04;;;;;;;;;;;;;;;;;;5026153;28;8353;-81
2022/09/18 07:39:30;;;;;;;;;;;;;;;;;;5026550;28;8277;-82
2022/09/18 07:41:55;;;;;;;;;;;;;;;;;;5026273;28;7259;-81
2022/09/18 07:44:21;;;;;;;;;;;;;;;;;;5026266;28;8469;-82
2022/09/18 07:46:46;;;;;;;;;;;;;;;;;;5011975;28;7250;-86
2022/09/18 07:49:12;;;;;;;;;;;;;;;;;;4979136;28;7130;-87
2022/09/18 07:51:37;;;;;;;;;;;;;;;;;;4975139;28;8302;-87
2022/09/18 07:54:03;;;;;;;;;;;;;;;;;;4975034;28;7158;-87
2022/09/18 07:56:28;;;;;;;;;;;;;;;;;;4985435;28;7129;-80
2022/09/18 07:58:54;;;;;;;;;;;;;;;;;;5004437;28;8388;-80
2022/09/18 08:01:19;;;;;;;;;;;;;;;;;;4983589;28;7554;-89
2022/09/18 08:03:45;;;;;;;;;;;;;;;;;;4995973;28;7222;-88
2022/09/18 08:06:10;;;;;;;;;;;;;;;;;;4998997;28;7136;-84
2022/09/18 08:08:36;;;;;;;;;;;;;;;;;;4998757;28;8364;-87
2022/09/18 08:11:02;;;;;;;;;;;;;;;;;;4996242;28;8471;-85
2022/09/18 08:13:27;;;;;;;;;;;;;;;;;;4995149;28;7026;-87
2022/09/18 08:15:53;;;;;;;;;;;;;;;;;;4994127;28;8412;-89
2022/09/18 08:18:20;;;;;;;;;;;;;;;;;;4993924;28;8479;-86
2022/09/18 08:20:45;;;;;;;;;;;;;;;;;;4990301;28;8397;-81
2022/09/18 08:23:14;;;;;;;;;;;;;;;;;;4974125;28;8945;-81
2022/09/18 08:25:41;;;;;;;;;;;;;;;;;;4983252;28;6835;-82
2022/09/18 08:28:06;;;;;;;;;;;;;;;;;;4975652;28;7069;-83
2022/09/18 08:30:33;;;;;;;;;;;;;;;;;;4988173;28;7231;-86
2022/09/18 08:33:00;;;;;;;;;;;;;;;;;;4983122;28;7148;-83
2022/09/18 08:35:26;;;;;;;;;;;;;;;;;;4979280;28;7046;-81
2022/09/18 08:37:51;;;;;;;;;;;;;;;;;;4984563;28;7243;-83
2022/09/18 08:40:20;;;;;;;;;;;;;;;;;;4981108;28;7053;-85
2022/09/18 08:42:45;;;;;;;;;;;;;;;;;;4995136;28;7149;-82
2022/09/18 08:45:16;;;;;;;;;;;;;;;;;;4993721;28;7318;-85
2022/09/18 08:47:51;;;;;;;;;;;;;;;;;;4976229;28;7241;-87
2022/09/18 08:50:25;;;;;;;;;;;;;;;;;;4974591;28;8794;-87
2022/09/18 08:52:56;;;;;;;;;;;;;;;;;;4975350;28;7093;-88
2022/09/18 08:55:29;;;;;;;;;;;;;;;;;;4974040;28;8383;-87
2022/09/18 08:58:00;;;;;;;;;;;;;;;;;;4976571;28;7030;-83
2022/09/18 09:00:40;;;;;;;;;;;;;;;;;;4980394;28;7211;-86
2022/09/18 09:03:14;;;;;;;;;;;;;;;;;;4976969;28;7056;-87
2022/09/18 09:06:13;;;;;;;;;;;;;;;;;;4978713;28;8411;-80
2022/09/18 09:08:45;;;;;;;;;;;;;;;;;;4954602;28;8305;-80
2022/09/18 09:11:26;;;;;;;;;;;;;;;;;;4978546;28;7237;-84
2022/09/18 09:13:58;;;;;;;;;;;;;;;;;;4979779;28;7039;-85
2022/09/18 09:16:40;;;;;;;;;;;;;;;;;;4979927;28;7027;-84
2022/09/18 09:19:27;;;;;;;;;;;;;;;;;;4979199;28;8280;-86
2022/09/18 09:21:59;;;;;;;;;;;;;;;;;;4981916;28;7430;-83
2022/09/18 09:24:29;;;;;;;;;;;;;;;;;;4982100;28;8321;-81
2022/09/18 09:26:57;;;;;;;;;;;;;;;;;;4981901;28;8409;-84
2022/09/18 09:29:23;;;;;;;;;;;;;;;;;;4981466;28;7009;-82
2022/09/18 09:31:57;;;;;;;;;;;;;;;;;;4980870;28;7102;-82
2022/09/18 09:34:31;;;;;;;;;;;;;;;;;;4981551;28;8352;-86
2022/09/18 09:37:02;;;;;;;;;;;;;;;;;;4977275;28;6956;-85
2022/09/18 09:39:28;;;;;;;;;;;;;;;;;;4978105;28;9209;-86
2022/09/18 09:42:06;;;;;;;;;;;;;;;;;;4977516;28;7329;-83
2022/09/18 09:44:38;;;;;;;;;;;;;;;;;;4980805;28;7127;-84
2022/09/18 09:47:17;;;;;;;;;;;;;;;;;;4979200;28;8340;-80
2022/09/18 09:50:01;;;;;;;;;;;;;;;;;;4979747;28;7163;-84
2022/09/18 09:52:28;;;;;;;;;;;;;;;;;;4978422;28;8725;-85
2022/09/18 09:55:05;;;;;;;;;;;;;;;;;;4979000;28;7157;-83
2022/09/18 09:57:34;;;;;;;;;;;;;;;;;;4979632;28;7168;-83
2022/09/18 10:00:03;;;;;;;;;;;;;;;;;;4980291;28;8768;-79
2022/09/18 10:02:48;;;;;;;;;;;;;;;;;;4977588;28;8337;-87
2022/09/18 10:05:29;;;;;;;;;;;;;;;;;;4978894;28;7128;-81
2022/09/18 10:07:54;;;;;;;;;;;;;;;;;;4978540;28;7170;-82
2022/09/18 10:10:19;;;;;;;;;;;;;;;;;;4978486;28;8760;-80
2022/09/18 10:12:51;;;;;;;;;;;;;;;;;;4982809;28;6983;-80
2022/09/18 10:15:35;;;;;;;;;;;;;;;;;;4984551;28;7047;-80
2022/09/18 10:18:04;;;;;;;;;;;;;;;;;;4984892;28;8645;-81
2022/09/18 10:20:31;;;;;;;;;;;;;;;;;;4984466;28;7232;-81
2022/09/18 10:23:02;;;;;;;;;;;;;;;;;;4984734;28;7158;-80
2022/09/18 10:25:28;;;;;;;;;;;;;;;;;;4984320;28;8503;-80
2022/09/18 10:27:54;;;;;;;;;;;;;;;;;;4984054;28;8405;-80
2022/09/18 10:30:19;;;;;;;;;;;;;;;;;;4984027;28;8543;-80
2022/09/18 10:32:45;;;;;;;;;;;;;;;;;;4984503;28;7425;-80
2022/09/18 10:35:33;;;;;;;;;;;;;;;;;;4983988;28;7031;-80
2022/09/18 10:38:00;;;;;;;;;;;;;;;;;;4978602;28;8269;-80
2022/09/18 10:40:30;;;;;;;;;;;;;;;;;;4983766;28;7263;-79
2022/09/18 10:42:57;;;;;;;;;;;;;;;;;;4986275;28;8254;-81
2022/09/18 10:45:26;;;;;;;;;;;;;;;;;;4986685;28;8430;-81
2022/09/18 10:48:03;;;;;;;;;;;;;;;;;;4991821;28;7062;-80
2022/09/18 10:50:28;;;;;;;;;;;;;;;;;;4996616;28;7177;-80
2022/09/18 10:52:56;;;;;;;;;;;;;;;;;;4981926;28;7156;-80
2022/09/18 10:55:26;;;;;;;;;;;;;;;;;;4989587;28;7061;-80
2022/09/18 10:58:04;;;;;;;;;;;;;;;;;;4979225;28;7341;-87
2022/09/18 11:00:33;;;;;;;;;;;;;;;;;;4955674;29;7415;-87
2022/09/18 11:03:16;;;;;;;;;;;;;;;;;;4955191;28;7125;-88
2022/09/18 11:06:07;;;;;;;;;;;;;;;;;;4955720;28;9048;-87
2022/09/18 11:08:36;;;;;;;;;;;;;;;;;;4954443;29;8445;-87
2022/09/18 11:11:07;;;;;;;;;;;;;;;;;;4955830;28;7255;-86
2022/09/18 11:13:40;;;;;;;;;;;;;;;;;;4955643;28;7244;-87
2022/09/18 11:16:07;;;;;;;;;;;;;;;;;;4955179;28;8531;-86
2022/09/18 11:18:33;;;;;;;;;;;;;;;;;;4955507;28;8869;-87
2022/09/18 11:21:01;;;;;;;;;;;;;;;;;;4956139;28;7013;-87
2022/09/18 11:23:28;;;;;;;;;;;;;;;;;;4955567;28;8540;-86
2022/09/18 11:26:09;;;;;;;;;;;;;;;;;;4955257;28;7172;-86
2022/09/18 11:28:35;;;;;;;;;;;;;;;;;;4970277;28;8585;-87
2022/09/18 11:31:05;;;;;;;;;;;;;;;;;;4971211;28;8444;-87
2022/09/18 11:33:36;;;;;;;;;;;;;;;;;;4971056;28;7159;-87
2022/09/18 11:36:08;;;;;;;;;;;;;;;;;;4972007;28;9356;-87
2022/09/18 11:38:39;;;;;;;;;;;;;;;;;;4969956;28;7166;-86
2022/09/18 11:41:05;;;;;;;;;;;;;;;;;;4970664;28;7015;-87
2022/09/18 11:43:34;;;;;;;;;;;;;;;;;;4970093;28;7163;-86
2022/09/18 11:46:00;;;;;;;;;;;;;;;;;;4970117;28;7146;-85
2022/09/18 11:48:31;;;;;;;;;;;;;;;;;;4970032;28;7137;-87
2022/09/18 11:51:01;;;;;;;;;;;;;;;;;;4970741;28;7174;-86
2022/09/18 11:53:38;;;;;;;;;;;;;;;;;;4974585;28;8527;-87
2022/09/18 11:56:10;;;;;;;;;;;;;;;;;;4974560;28;8706;-87
2022/09/18 11:58:58;;;;;;;;;;;;;;;;;;4975358;28;9009;-88
2022/09/18 12:01:32;;;;;;;;;;;;;;;;;;4974603;28;7166;-86
2022/09/18 12:04:18;;;;;;;;;;;;;;;;;;4975463;28;7246;-86
2022/09/18 12:07:16;;;;;;;;;;;;;;;;;;4975714;28;7186;-87
2022/09/18 12:09:51;;;;;;;;;;;;;;;;;;4974101;28;8493;-88
2022/09/18 12:12:36;;;;;;;;;;;;;;;;;;4974862;28;8492;-88
2022/09/18 14:26:27;;;;;;;;;;;;;;;;;;5060039;27;1591971;-61
2022/09/18 14:28:54;;;;;;;;;;;;;;;;;;5086518;28;7110;-60
2022/09/18 14:31:27;;;;;;;;;;;;;;;;;;5058587;28;8019;-61
2022/09/18 14:33:57;;;;;;;;;;;;;;;;;;5052604;28;7029;-60
2022/09/18 14:36:23;;;;;;;;;;;;;;;;;;5066086;28;7048;-60
2022/09/18 14:38:49;;;;;;;;;;;;;;;;;;5064322;28;7447;-60
2022/09/18 14:41:20;;;;;;;;;;;;;;;;;;5062209;28;7138;-60
2022/09/18 14:43:48;;;;;;;;;;;;;;;;;;5070681;28;7021;-61
2022/09/18 14:46:21;;;;;;;;;;;;;;;;;;5071007;28;7195;-60
2022/09/18 14:48:47;;;;;;;;;;;;;;;;;;5070951;28;7188;-60
2022/09/18 14:51:18;;;;;;;;;;;;;;;;;;5071016;28;7488;-61
2022/09/18 14:53:48;;;;;;;;;;;;;;;;;;5071104;28;7267;-61
2022/09/18 14:56:17;;;;;;;;;;;;;;;;;;5070741;28;6887;-60
2022/09/18 14:58:46;;;;;;;;;;;;;;;;;;5070989;28;6980;-60
2022/09/18 15:01:27;;;;;;;;;;;;;;;;;;5071353;28;7252;-60
2022/09/18 15:03:55;;;;;;;;;;;;;;;;;;5070669;28;8372;-61
2022/09/18 15:06:36;;;;;;;;;;;;;;;;;;5070876;28;6925;-61
2022/09/18 15:09:03;;;;;;;;;;;;;;;;;;5070668;28;6950;-60
2022/09/18 15:11:30;;;;;;;;;;;;;;;;;;5071022;28;7262;-61
2022/09/18 15:13:55;;;;;;;;;;;;;;;;;;5071139;28;7219;-60
2022/09/18 15:16:27;;;;;;;;;;;;;;;;;;5070888;28;7084;-60
2022/09/18 15:18:53;;;;;;;;;;;;;;;;;;5070772;28;7387;-60
2022/09/18 15:21:22;;;;;;;;;;;;;;;;;;5070879;28;6957;-60
2022/09/18 15:23:48;;;;;;;;;;;;;;;;;;5070703;28;7002;-60
2022/09/18 15:26:16;;;;;;;;;;;;;;;;;;5062741;28;7083;-60
2022/09/18 15:28:47;;;;;;;;;;;;;;;;;;5056925;28;7218;-61
2022/09/18 15:31:16;;;;;;;;;;;;;;;;;;5057226;28;7400;-60
2022/09/18 15:33:50;;;;;;;;;;;;;;;;;;5057316;28;7272;-60
2022/09/18 15:36:24;;;;;;;;;;;;;;;;;;5057216;28;7126;-60
2022/09/18 15:38:51;;;;;;;;;;;;;;;;;;5057163;28;7204;-61
2022/09/18 15:41:31;;;;;;;;;;;;;;;;;;5057123;28;7137;-60
2022/09/18 15:43:57;;;;;;;;;;;;;;;;;;5057057;28;7234;-60
2022/09/18 15:46:25;;;;;;;;;;;;;;;;;;5056799;28;6806;-61
2022/09/18 15:48:50;;;;;;;;;;;;;;;;;;5057494;28;6926;-60
2022/09/18 15:51:21;;;;;;;;;;;;;;;;;;5056736;28;7034;-60
2022/09/18 15:54:00;;;;;;;;;;;;;;;;;;5056898;28;7110;-60
2022/09/18 15:56:26;;;;;;;;;;;;;;;;;;5056739;28;7043;-60
2022/09/18 15:58:58;;;;;;;;;;;;;;;;;;5056817;28;7222;-60
2022/09/18 16:01:30;;;;;;;;;;;;;;;;;;5056696;28;6965;-60
2022/09/18 16:04:01;;;;;;;;;;;;;;;;;;5056718;28;7218;-60
2022/09/18 16:06:31;;;;;;;;;;;;;;;;;;5057255;28;7004;-60
2022/09/18 16:08:59;;;;;;;;;;;;;;;;;;5056308;28;7328;-60
2022/09/18 16:11:36;;;;;;;;;;;;;;;;;;5056672;28;7227;-60
2022/09/18 16:14:13;;;;;;;;;;;;;;;;;;5056446;28;7183;-60
2022/09/18 16:16:38;;;;;;;;;;;;;;;;;;5056816;28;7099;-60
2022/09/18 16:19:09;;;;;;;;;;;;;;;;;;5056296;28;7039;-60
2022/09/18 16:21:43;;;;;;;;;;;;;;;;;;5056330;28;6952;-60
2022/09/18 16:24:29;;;;;;;;;;;;;;;;;;5056407;28;7212;-60
2022/09/18 16:27:05;;;;;;;;;;;;;;;;;;5056304;28;7351;-60
2022/09/18 16:29:33;;;;;;;;;;;;;;;;;;5056334;28;6999;-60
2022/09/18 16:31:58;;;;;;;;;;;;;;;;;;5056264;28;7201;-60
2022/09/18 16:34:28;;;;;;;;;;;;;;;;;;5056078;28;7231;-60
2022/09/18 16:36:54;;;;;;;;;;;;;;;;;;5056824;28;7045;-60
2022/09/18 16:39:21;;;;;;;;;;;;;;;;;;5055447;28;6954;-60
2022/09/18 16:41:48;;;;;;;;;;;;;;;;;;5056005;28;7257;-60
2022/09/18 16:44:15;;;;;;;;;;;;;;;;;;5044301;28;7267;-62
2022/09/18 16:46:47;;;;;;;;;;;;;;;;;;5051674;28;7855;-62
2022/09/18 16:49:15;;;;;;;;;;;;;;;;;;5042511;28;7122;-62
2022/09/18 16:51:42;;;;;;;;;;;;;;;;;;5043706;28;7107;-60
2022/09/18 16:54:07;;;;;;;;;;;;;;;;;;5040215;28;6961;-60
2022/09/18 16:56:47;;;;;;;;;;;;;;;;;;5055529;28;7044;-60
2022/09/18 16:59:14;;;;;;;;;;;;;;;;;;5055596;28;7067;-60
2022/09/18 17:01:41;;;;;;;;;;;;;;;;;;5050213;28;7984;-60
2022/09/18 17:04:06;;;;;;;;;;;;;;;;;;5035491;28;7175;-60
2022/09/18 17:06:32;;;;;;;;;;;;;;;;;;5040754;28;7022;-60
2022/09/18 17:08:57;;;;;;;;;;;;;;;;;;5055571;28;7044;-60
2022/09/18 17:11:23;;;;;;;;;;;;;;;;;;5055339;28;7052;-60
2022/09/18 17:13:48;;;;;;;;;;;;;;;;;;5055395;28;6912;-60
2022/09/18 17:16:17;;;;;;;;;;;;;;;;;;5054943;28;7293;-60
2022/09/18 17:18:44;;;;;;;;;;;;;;;;;;5054913;28;7246;-60
2022/09/18 17:21:11;;;;;;;;;;;;;;;;;;5056255;28;7204;-60
2022/09/18 17:23:37;;;;;;;;;;;;;;;;;;5054663;28;6960;-60
2022/09/18 17:26:07;;;;;;;;;;;;;;;;;;5053140;28;7266;-60
2022/09/18 17:28:34;;;;;;;;;;;;;;;;;;5046227;28;7040;-60
2022/09/18 17:31:00;;;;;;;;;;;;;;;;;;5047612;28;6971;-60
2022/09/18 17:33:26;;;;;;;;;;;;;;;;;;5039823;28;7420;-60
2022/09/18 17:35:51;;;;;;;;;;;;;;;;;;5048603;28;7022;-60
2022/09/18 17:38:17;;;;;;;;;;;;;;;;;;5046206;28;7087;-60
2022/09/18 17:40:42;;;;;;;;;;;;;;;;;;5044352;28;7228;-60
2022/09/18 17:43:08;;;;;;;;;;;;;;;;;;5044007;28;7163;-60
2022/09/18 17:45:33;;;;;;;;;;;;;;;;;;5034532;28;7179;-60
2022/09/18 17:47:58;;;;;;;;;;;;;;;;;;5034917;28;7113;-60
2022/09/18 17:50:24;;;;;;;;;;;;;;;;;;5034484;28;6928;-60
2022/09/18 17:52:50;;;;;;;;;;;;;;;;;;5034879;28;6921;-60
2022/09/18 17:55:16;;;;;;;;;;;;;;;;;;5034660;28;7918;-60
2022/09/18 17:57:42;;;;;;;;;;;;;;;;;;5034969;28;6941;-60
2022/09/18 18:00:09;;;;;;;;;;;;;;;;;;5039198;28;7225;-60
2022/09/18 18:02:34;;;;;;;;;;;;;;;;;;5045272;28;6950;-60
2022/09/18 18:05:01;;;;;;;;;;;;;;;;;;5053950;28;6982;-60
2022/09/18 18:07:27;;;;;;;;;;;;;;;;;;5054061;28;6965;-60
2022/09/18 18:09:53;;;;;;;;;;;;;;;;;;5054335;28;7309;-60
2022/09/18 18:12:19;;;;;;;;;;;;;;;;;;5047666;28;7150;-60
2022/09/18 18:14:44;;;;;;;;;;;;;;;;;;5047632;28;7154;-60
2022/09/18 18:17:11;;;;;;;;;;;;;;;;;;5041766;28;7163;-60
2022/09/18 18:19:37;;;;;;;;;;;;;;;;;;5053610;28;7111;-60
2022/09/18 18:22:04;;;;;;;;;;;;;;;;;;5036899;28;7692;-60
2022/09/18 18:24:29;;;;;;;;;;;;;;;;;;5034978;28;7120;-60
2022/09/18 18:26:56;;;;;;;;;;;;;;;;;;5038036;28;7094;-60
2022/09/18 18:29:23;;;;;;;;;;;;;;;;;;5037149;28;6957;-60
2022/09/18 18:31:50;;;;;;;;;;;;;;;;;;5054485;28;7183;-60
2022/09/18 18:34:21;;;;;;;;;;;;;;;;;;5049931;28;7043;-60
2022/09/18 18:36:48;;;;;;;;;;;;;;;;;;5034202;28;7200;-60
2022/09/18 18:39:14;;;;;;;;;;;;;;;;;;5040812;28;6988;-60
2022/09/18 18:44:42;;;;;;;;;;;;;;;;;;5051766;28;6690;-60
2022/09/18 18:47:08;;;;;;;;;;;;;;;;;;5038678;28;7338;-60
2022/09/18 18:49:34;;;;;;;;;;;;;;;;;;5037515;28;7138;-60
2022/09/18 18:52:02;;;;;;;;;;;;;;;;;;5044075;28;7369;-60
2022/09/18 18:54:28;;;;;;;;;;;;;;;;;;5053770;28;7022;-60
2022/09/18 18:56:53;;;;;;;;;;;;;;;;;;5037949;28;7715;-60
2022/09/18 18:59:21;;;;;;;;;;;;;;;;;;5034936;28;7170;-60
2022/09/18 19:01:47;;;;;;;;;;;;;;;;;;5036419;28;6977;-60
2022/09/18 19:04:14;;;;;;;;;;;;;;;;;;5037892;28;7152;-60
2022/09/18 19:06:41;;;;;;;;;;;;;;;;;;5037874;28;6978;-60
2022/09/18 19:09:10;;;;;;;;;;;;;;;;;;5037336;28;6819;-60
2022/09/18 19:11:41;;;;;;;;;;;;;;;;;;5038159;28;6844;-60
2022/09/18 19:14:15;;;;;;;;;;;;;;;;;;5037709;28;7118;-60
2022/09/18 19:16:42;;;;;;;;;;;;;;;;;;5038308;28;7209;-60
2022/09/18 19:19:10;;;;;;;;;;;;;;;;;;5037562;28;7230;-60
2022/09/18 19:21:39;;;;;;;;;;;;;;;;;;5038546;28;6988;-61
2022/09/18 19:24:06;;;;;;;;;;;;;;;;;;5036824;28;6962;-61
2022/09/18 19:26:32;;;;;;;;;;;;;;;;;;5035398;28;7068;-61
2022/09/18 19:28:59;;;;;;;;;;;;;;;;;;5035744;28;6984;-60
2022/09/18 19:31:26;;;;;;;;;;;;;;;;;;5035808;28;7190;-61